Terminal Aerodrome Forecast
Issued by NWS

Home | Current Version | Previous Version | Text Only | Print | Product List | Glossary On
Versions: 1 2 3 4 5 6 7 8 9 10 11 12 13 14 15 16 17
000
FTUS41 KBGM 230500
TAFITH
TAF
KITH 230520Z 2306/2406 18006KT P6SM FEW050
     FM231300 25010KT P6SM BKN040 PROB30 2317/2319 4SM TSRA OVC035CB
     FM231900 30008KT P6SM OVC040
     FM240000 32004KT P6SM OVC040=

USA.gov is the U.S. government's official web portal to all federal, state and local government web resources and services.